Terminal Aerodrome Forecast
Issued by NWS Tampa Bay Area, FL

Home | Current Version | Previous Version | Text Only | Print | Product List | Glossary On
Versions: 1 2 3 4 5 6 7 8 9 10 11 12 13 14 15 16 17 18 19 20 21
583
FTUS42 KTBW 271359 AAA
TAFFMY
TAF AMD
KFMY 271359Z 2714/2812 15015G20KT P6SM VCSH BKN015 OVC030
      TEMPO 2714/2716 5SM SHRA OVC009
     FM271700 16019G27KT P6SM VCSH BKN040 OVC060
     FM271900 18022G30KT P6SM VCSH BKN040 OVC060
     FM280500 16013G18KT P6SM VCSH BKN050 OVC080=

USA.gov is the U.S. government's official web portal to all federal, state and local government web resources and services.